sensor_id;sensor_type;location;lat;lon;timestamp;P1;durP1;ratioP1;P2;durP2;ratioP2
18338;SDS011;9295;44.484;11.240;2022-07-25T00:00:57;14.50;;;7.20;;
18338;SDS011;9295;44.484;11.240;2022-07-25T00:03:26;13.40;;;7.27;;
18338;SDS011;9295;44.484;11.240;2022-07-25T00:05:55;11.60;;;7.90;;
18338;SDS011;9295;44.484;11.240;2022-07-25T00:08:23;12.37;;;7.97;;
18338;SDS011;9295;44.484;11.240;2022-07-25T00:10:57;12.40;;;8.10;;
18338;SDS011;9295;44.484;11.240;2022-07-25T00:13:27;16.83;;;8.07;;
18338;SDS011;9295;44.484;11.240;2022-07-25T00:15:58;13.57;;;8.23;;
18338;SDS011;9295;44.484;11.240;2022-07-25T00:18:26;11.00;;;8.07;;
18338;SDS011;9295;44.484;11.240;2022-07-25T00:20:55;12.40;;;7.67;;
18338;SDS011;9295;44.484;11.240;2022-07-25T00:23:24;9.60;;;7.20;;
18338;SDS011;9295;44.484;11.240;2022-07-25T00:25:53;9.10;;;7.20;;
18338;SDS011;9295;44.484;11.240;2022-07-25T00:28:21;15.27;;;8.07;;
18338;SDS011;9295;44.484;11.240;2022-07-25T00:30:50;17.03;;;8.10;;
18338;SDS011;9295;44.484;11.240;2022-07-25T00:33:20;17.93;;;8.07;;
18338;SDS011;9295;44.484;11.240;2022-07-25T00:35:49;13.07;;;7.83;;
18338;SDS011;9295;44.484;11.240;2022-07-25T00:38:17;12.43;;;7.60;;
18338;SDS011;9295;44.484;11.240;2022-07-25T00:40:48;14.47;;;7.90;;
18338;SDS011;9295;44.484;11.240;2022-07-25T00:43:21;16.30;;;8.30;;
18338;SDS011;9295;44.484;11.240;2022-07-25T00:45:49;11.93;;;7.90;;
18338;SDS011;9295;44.484;11.240;2022-07-25T00:48:18;13.53;;;7.67;;
18338;SDS011;9295;44.484;11.240;2022-07-25T00:50:48;10.33;;;7.60;;
18338;SDS011;9295;44.484;11.240;2022-07-25T00:53:17;14.70;;;8.67;;
18338;SDS011;9295;44.484;11.240;2022-07-25T00:55:46;13.40;;;8.33;;
18338;SDS011;9295;44.484;11.240;2022-07-25T00:58:14;10.40;;;8.40;;
18338;SDS011;9295;44.484;11.240;2022-07-25T01:00:47;11.53;;;7.30;;
18338;SDS011;9295;44.484;11.240;2022-07-25T01:03:16;10.30;;;7.57;;
18338;SDS011;9295;44.484;11.240;2022-07-25T01:05:46;10.77;;;7.90;;
18338;SDS011;9295;44.484;11.240;2022-07-25T01:08:19;12.60;;;7.70;;
18338;SDS011;9295;44.484;11.240;2022-07-25T01:10:49;14.87;;;7.80;;
18338;SDS011;9295;44.484;11.240;2022-07-25T01:13:17;27.70;;;16.07;;
18338;SDS011;9295;44.484;11.240;2022-07-25T01:15:46;26.17;;;17.03;;
18338;SDS011;9295;44.484;11.240;2022-07-25T01:18:15;17.13;;;11.40;;
18338;SDS011;9295;44.484;11.240;2022-07-25T01:20:45;12.20;;;9.47;;
18338;SDS011;9295;44.484;11.240;2022-07-25T01:23:17;15.03;;;8.30;;
18338;SDS011;9295;44.484;11.240;2022-07-25T01:25:45;10.80;;;8.57;;
18338;SDS011;9295;44.484;11.240;2022-07-25T01:28:14;11.80;;;7.43;;
18338;SDS011;9295;44.484;11.240;2022-07-25T01:30:43;9.97;;;7.00;;
18338;SDS011;9295;44.484;11.240;2022-07-25T01:33:13;12.63;;;7.87;;
18338;SDS011;9295;44.484;11.240;2022-07-25T01:35:43;13.63;;;7.90;;
18338;SDS011;9295;44.484;11.240;2022-07-25T01:38:13;20.27;;;8.70;;
18338;SDS011;9295;44.484;11.240;2022-07-25T01:40:42;13.63;;;8.53;;
18338;SDS011;9295;44.484;11.240;2022-07-25T01:43:11;12.13;;;7.53;;
18338;SDS011;9295;44.484;11.240;2022-07-25T01:45:40;14.13;;;7.27;;
18338;SDS011;9295;44.484;11.240;2022-07-25T01:48:11;15.60;;;8.30;;
18338;SDS011;9295;44.484;11.240;2022-07-25T01:50:42;16.23;;;7.67;;
18338;SDS011;9295;44.484;11.240;2022-07-25T01:53:12;14.70;;;8.03;;
18338;SDS011;9295;44.484;11.240;2022-07-25T01:55:41;13.17;;;8.40;;
18338;SDS011;9295;44.484;11.240;2022-07-25T01:58:12;16.80;;;7.67;;
18338;SDS011;9295;44.484;11.240;2022-07-25T02:00:40;17.67;;;8.97;;
18338;SDS011;9295;44.484;11.240;2022-07-25T02:03:09;13.97;;;8.57;;
18338;SDS011;9295;44.484;11.240;2022-07-25T02:05:55;13.17;;;7.90;;
18338;SDS011;9295;44.484;11.240;2022-07-25T02:08:25;17.20;;;8.70;;
18338;SDS011;9295;44.484;11.240;2022-07-25T02:10:55;18.43;;;8.03;;
18338;SDS011;9295;44.484;11.240;2022-07-25T02:13:24;14.13;;;8.00;;
18338;SDS011;9295;44.484;11.240;2022-07-25T02:15:53;17.60;;;7.80;;
18338;SDS011;9295;44.484;11.240;2022-07-25T02:18:22;12.80;;;7.70;;
18338;SDS011;9295;44.484;11.240;2022-07-25T02:20:51;9.53;;;7.20;;
18338;SDS011;9295;44.484;11.240;2022-07-25T02:23:19;15.97;;;7.57;;
18338;SDS011;9295;44.484;11.240;2022-07-25T02:25:49;14.63;;;7.70;;
18338;SDS011;9295;44.484;11.240;2022-07-25T02:28:18;13.90;;;7.90;;
18338;SDS011;9295;44.484;11.240;2022-07-25T02:30:46;12.17;;;7.97;;
18338;SDS011;9295;44.484;11.240;2022-07-25T02:33:15;15.77;;;7.63;;
18338;SDS011;9295;44.484;11.240;2022-07-25T02:35:44;15.97;;;7.57;;
18338;SDS011;9295;44.484;11.240;2022-07-25T02:38:12;10.97;;;7.87;;
18338;SDS011;9295;44.484;11.240;2022-07-25T02:40:45;13.33;;;7.40;;
18338;SDS011;9295;44.484;11.240;2022-07-25T02:43:15;14.80;;;8.10;;
18338;SDS011;9295;44.484;11.240;2022-07-25T02:45:45;14.77;;;8.20;;
18338;SDS011;9295;44.484;11.240;2022-07-25T02:48:14;11.47;;;7.73;;
18338;SDS011;9295;44.484;11.240;2022-07-25T02:50:42;14.97;;;8.10;;
18338;SDS011;9295;44.484;11.240;2022-07-25T02:53:11;16.07;;;8.03;;
18338;SDS011;9295;44.484;11.240;2022-07-25T02:56:03;14.00;;;8.00;;
18338;SDS011;9295;44.484;11.240;2022-07-25T02:58:36;14.17;;;8.37;;
18338;SDS011;9295;44.484;11.240;2022-07-25T03:01:05;10.80;;;8.23;;
18338;SDS011;9295;44.484;11.240;2022-07-25T03:03:36;11.10;;;8.57;;
18338;SDS011;9295;44.484;11.240;2022-07-25T03:06:05;11.77;;;8.33;;
18338;SDS011;9295;44.484;11.240;2022-07-25T03:08:34;11.53;;;8.03;;
18338;SDS011;9295;44.484;11.240;2022-07-25T03:11:02;12.80;;;8.63;;
18338;SDS011;9295;44.484;11.240;2022-07-25T03:13:31;14.20;;;8.57;;
18338;SDS011;9295;44.484;11.240;2022-07-25T03:16:01;16.20;;;7.77;;
18338;SDS011;9295;44.484;11.240;2022-07-25T03:18:32;11.80;;;7.33;;
18338;SDS011;9295;44.484;11.240;2022-07-25T03:21:04;13.00;;;7.93;;
18338;SDS011;9295;44.484;11.240;2022-07-25T03:23:33;14.43;;;7.93;;
18338;SDS011;9295;44.484;11.240;2022-07-25T03:26:01;12.47;;;8.53;;
18338;SDS011;9295;44.484;11.240;2022-07-25T03:28:30;9.97;;;7.80;;
18338;SDS011;9295;44.484;11.240;2022-07-25T03:31:00;9.03;;;7.47;;
18338;SDS011;9295;44.484;11.240;2022-07-25T03:33:29;14.73;;;8.00;;
18338;SDS011;9295;44.484;11.240;2022-07-25T03:35:58;13.20;;;7.77;;
18338;SDS011;9295;44.484;11.240;2022-07-25T03:38:27;11.50;;;8.13;;
18338;SDS011;9295;44.484;11.240;2022-07-25T03:40:56;14.43;;;8.10;;
18338;SDS011;9295;44.484;11.240;2022-07-25T03:43:24;13.63;;;8.13;;
18338;SDS011;9295;44.484;11.240;2022-07-25T03:45:53;8.57;;;7.50;;
18338;SDS011;9295;44.484;11.240;2022-07-25T03:48:23;11.07;;;8.00;;
18338;SDS011;9295;44.484;11.240;2022-07-25T03:50:55;10.27;;;8.13;;
18338;SDS011;9295;44.484;11.240;2022-07-25T03:53:31;13.00;;;8.17;;
18338;SDS011;9295;44.484;11.240;2022-07-25T03:56:20;11.03;;;7.83;;
18338;SDS011;9295;44.484;11.240;2022-07-25T03:58:48;11.00;;;7.60;;
18338;SDS011;9295;44.484;11.240;2022-07-25T04:01:17;11.67;;;8.57;;
18338;SDS011;9295;44.484;11.240;2022-07-25T04:03:49;11.80;;;8.67;;
18338;SDS011;9295;44.484;11.240;2022-07-25T04:06:17;11.10;;;8.10;;
18338;SDS011;9295;44.484;11.240;2022-07-25T04:08:46;15.60;;;8.13;;
18338;SDS011;9295;44.484;11.240;2022-07-25T04:11:21;12.77;;;8.20;;
18338;SDS011;9295;44.484;11.240;2022-07-25T04:13:50;12.37;;;7.97;;
18338;SDS011;9295;44.484;11.240;2022-07-25T04:16:19;15.00;;;8.50;;
18338;SDS011;9295;44.484;11.240;2022-07-25T04:18:55;22.90;;;8.70;;
18338;SDS011;9295;44.484;11.240;2022-07-25T04:21:26;14.20;;;7.97;;
18338;SDS011;9295;44.484;11.240;2022-07-25T04:23:54;11.90;;;8.33;;
18338;SDS011;9295;44.484;11.240;2022-07-25T04:26:23;11.27;;;8.73;;
18338;SDS011;9295;44.484;11.240;2022-07-25T04:28:51;17.83;;;7.97;;
18338;SDS011;9295;44.484;11.240;2022-07-25T04:31:20;12.30;;;8.30;;
18338;SDS011;9295;44.484;11.240;2022-07-25T04:33:49;14.30;;;8.90;;
18338;SDS011;9295;44.484;11.240;2022-07-25T04:36:19;12.60;;;7.97;;
18338;SDS011;9295;44.484;11.240;2022-07-25T04:38:48;10.20;;;7.67;;
18338;SDS011;9295;44.484;11.240;2022-07-25T04:41:17;16.70;;;7.90;;
18338;SDS011;9295;44.484;11.240;2022-07-25T04:43:45;12.10;;;8.20;;
18338;SDS011;9295;44.484;11.240;2022-07-25T04:46:16;11.30;;;7.83;;
18338;SDS011;9295;44.484;11.240;2022-07-25T04:48:46;14.43;;;8.50;;
18338;SDS011;9295;44.484;11.240;2022-07-25T04:51:15;14.40;;;8.33;;
18338;SDS011;9295;44.484;11.240;2022-07-25T04:53:45;11.77;;;7.70;;
18338;SDS011;9295;44.484;11.240;2022-07-25T04:56:14;12.67;;;8.40;;
18338;SDS011;9295;44.484;11.240;2022-07-25T04:58:42;15.90;;;8.57;;
18338;SDS011;9295;44.484;11.240;2022-07-25T05:01:11;11.37;;;8.20;;
18338;SDS011;9295;44.484;11.240;2022-07-25T05:03:40;16.13;;;8.43;;
18338;SDS011;9295;44.484;11.240;2022-07-25T05:06:16;12.13;;;8.57;;
18338;SDS011;9295;44.484;11.240;2022-07-25T05:08:46;9.80;;;8.20;;
18338;SDS011;9295;44.484;11.240;2022-07-25T05:11:15;10.47;;;7.40;;
18338;SDS011;9295;44.484;11.240;2022-07-25T05:13:44;12.33;;;8.27;;
18338;SDS011;9295;44.484;11.240;2022-07-25T05:16:12;10.00;;;7.63;;
18338;SDS011;9295;44.484;11.240;2022-07-25T05:18:41;14.80;;;7.57;;
18338;SDS011;9295;44.484;11.240;2022-07-25T05:21:10;11.83;;;7.70;;
18338;SDS011;9295;44.484;11.240;2022-07-25T05:23:39;13.30;;;7.90;;
18338;SDS011;9295;44.484;11.240;2022-07-25T05:26:10;14.23;;;8.03;;
18338;SDS011;9295;44.484;11.240;2022-07-25T05:28:38;17.90;;;7.93;;
18338;SDS011;9295;44.484;11.240;2022-07-25T05:31:10;11.03;;;6.90;;
18338;SDS011;9295;44.484;11.240;2022-07-25T05:33:38;19.43;;;8.07;;
18338;SDS011;9295;44.484;11.240;2022-07-25T05:36:10;13.93;;;7.93;;
18338;SDS011;9295;44.484;11.240;2022-07-25T05:38:41;15.27;;;7.60;;
18338;SDS011;9295;44.484;11.240;2022-07-25T05:41:13;14.17;;;7.47;;
18338;SDS011;9295;44.484;11.240;2022-07-25T05:43:42;12.43;;;8.00;;
18338;SDS011;9295;44.484;11.240;2022-07-25T05:46:12;13.60;;;7.90;;
18338;SDS011;9295;44.484;11.240;2022-07-25T05:48:42;10.10;;;7.30;;
18338;SDS011;9295;44.484;11.240;2022-07-25T05:51:11;10.00;;;7.33;;
18338;SDS011;9295;44.484;11.240;2022-07-25T05:53:40;11.53;;;7.07;;
18338;SDS011;9295;44.484;11.240;2022-07-25T05:56:09;15.13;;;7.70;;
18338;SDS011;9295;44.484;11.240;2022-07-25T05:58:42;13.13;;;7.73;;
18338;SDS011;9295;44.484;11.240;2022-07-25T06:01:14;9.23;;;7.07;;
18338;SDS011;9295;44.484;11.240;2022-07-25T06:03:43;11.23;;;7.23;;
18338;SDS011;9295;44.484;11.240;2022-07-25T06:06:12;13.30;;;8.13;;
18338;SDS011;9295;44.484;11.240;2022-07-25T06:08:40;17.37;;;8.47;;
18338;SDS011;9295;44.484;11.240;2022-07-25T06:11:10;19.37;;;8.30;;
18338;SDS011;9295;44.484;11.240;2022-07-25T06:13:39;14.80;;;7.80;;
18338;SDS011;9295;44.484;11.240;2022-07-25T06:16:09;13.17;;;8.40;;
18338;SDS011;9295;44.484;11.240;2022-07-25T06:18:38;14.97;;;7.00;;
18338;SDS011;9295;44.484;11.240;2022-07-25T06:21:09;16.10;;;7.67;;
18338;SDS011;9295;44.484;11.240;2022-07-25T06:23:37;22.00;;;7.73;;
18338;SDS011;9295;44.484;11.240;2022-07-25T06:26:07;12.83;;;7.63;;
18338;SDS011;9295;44.484;11.240;2022-07-25T06:28:41;11.77;;;7.23;;
18338;SDS011;9295;44.484;11.240;2022-07-25T06:31:10;23.00;;;7.33;;
18338;SDS011;9295;44.484;11.240;2022-07-25T06:33:39;19.40;;;8.43;;
18338;SDS011;9295;44.484;11.240;2022-07-25T06:36:07;13.53;;;8.83;;
18338;SDS011;9295;44.484;11.240;2022-07-25T06:38:36;22.73;;;8.93;;
18338;SDS011;9295;44.484;11.240;2022-07-25T06:41:05;13.53;;;8.17;;
18338;SDS011;9295;44.484;11.240;2022-07-25T06:43:34;19.93;;;8.83;;
18338;SDS011;9295;44.484;11.240;2022-07-25T06:46:04;20.53;;;9.20;;
18338;SDS011;9295;44.484;11.240;2022-07-25T06:48:32;15.50;;;8.83;;
18338;SDS011;9295;44.484;11.240;2022-07-25T06:51:04;20.57;;;8.67;;
18338;SDS011;9295;44.484;11.240;2022-07-25T06:53:35;13.57;;;9.17;;
18338;SDS011;9295;44.484;11.240;2022-07-25T06:56:04;15.03;;;9.30;;
18338;SDS011;9295;44.484;11.240;2022-07-25T06:58:43;21.70;;;9.13;;
18338;SDS011;9295;44.484;11.240;2022-07-25T07:01:13;13.87;;;8.83;;
18338;SDS011;9295;44.484;11.240;2022-07-25T07:03:42;16.20;;;9.07;;
18338;SDS011;9295;44.484;11.240;2022-07-25T07:06:10;17.53;;;10.07;;
18338;SDS011;9295;44.484;11.240;2022-07-25T07:08:39;18.27;;;8.33;;
18338;SDS011;9295;44.484;11.240;2022-07-25T07:11:07;17.30;;;8.43;;
18338;SDS011;9295;44.484;11.240;2022-07-25T07:13:36;15.23;;;9.40;;
18338;SDS011;9295;44.484;11.240;2022-07-25T07:16:05;15.33;;;8.93;;
18338;SDS011;9295;44.484;11.240;2022-07-25T07:18:36;14.60;;;8.47;;
18338;SDS011;9295;44.484;11.240;2022-07-25T07:21:05;11.17;;;8.60;;
18338;SDS011;9295;44.484;11.240;2022-07-25T07:23:33;19.43;;;9.30;;
18338;SDS011;9295;44.484;11.240;2022-07-25T07:26:05;13.77;;;8.70;;
18338;SDS011;9295;44.484;11.240;2022-07-25T07:28:36;14.90;;;8.83;;
18338;SDS011;9295;44.484;11.240;2022-07-25T07:31:05;18.70;;;9.47;;
18338;SDS011;9295;44.484;11.240;2022-07-25T07:33:44;19.47;;;9.70;;
18338;SDS011;9295;44.484;11.240;2022-07-25T07:36:13;11.40;;;8.90;;
18338;SDS011;9295;44.484;11.240;2022-07-25T07:38:41;18.97;;;9.60;;
18338;SDS011;9295;44.484;11.240;2022-07-25T07:41:10;15.17;;;9.60;;
18338;SDS011;9295;44.484;11.240;2022-07-25T07:43:39;15.40;;;9.20;;
18338;SDS011;9295;44.484;11.240;2022-07-25T07:46:10;17.20;;;9.10;;
18338;SDS011;9295;44.484;11.240;2022-07-25T07:48:41;17.13;;;9.47;;
18338;SDS011;9295;44.484;11.240;2022-07-25T07:51:11;23.23;;;8.93;;
18338;SDS011;9295;44.484;11.240;2022-07-25T07:53:40;21.37;;;10.50;;
18338;SDS011;9295;44.484;11.240;2022-07-25T07:56:31;18.77;;;9.47;;
18338;SDS011;9295;44.484;11.240;2022-07-25T07:59:00;16.10;;;8.50;;
18338;SDS011;9295;44.484;11.240;2022-07-25T08:01:29;17.47;;;10.27;;
18338;SDS011;9295;44.484;11.240;2022-07-25T08:03:57;17.33;;;9.73;;
18338;SDS011;9295;44.484;11.240;2022-07-25T08:06:27;14.43;;;9.10;;
18338;SDS011;9295;44.484;11.240;2022-07-25T08:08:56;20.67;;;9.73;;
18338;SDS011;9295;44.484;11.240;2022-07-25T08:11:25;18.40;;;9.20;;
18338;SDS011;9295;44.484;11.240;2022-07-25T08:13:55;29.77;;;9.23;;
18338;SDS011;9295;44.484;11.240;2022-07-25T08:16:24;15.80;;;9.57;;
18338;SDS011;9295;44.484;11.240;2022-07-25T08:18:53;16.63;;;10.10;;
18338;SDS011;9295;44.484;11.240;2022-07-25T08:21:21;17.97;;;9.70;;
18338;SDS011;9295;44.484;11.240;2022-07-25T08:23:51;20.97;;;8.67;;
18338;SDS011;9295;44.484;11.240;2022-07-25T08:26:20;18.70;;;9.00;;
18338;SDS011;9295;44.484;11.240;2022-07-25T08:28:48;18.10;;;9.37;;
18338;SDS011;9295;44.484;11.240;2022-07-25T08:31:30;17.13;;;8.40;;
18338;SDS011;9295;44.484;11.240;2022-07-25T08:34:01;16.63;;;9.50;;
18338;SDS011;9295;44.484;11.240;2022-07-25T08:36:33;17.93;;;9.07;;
18338;SDS011;9295;44.484;11.240;2022-07-25T08:39:06;18.93;;;8.83;;
18338;SDS011;9295;44.484;11.240;2022-07-25T08:41:34;14.83;;;8.60;;
18338;SDS011;9295;44.484;11.240;2022-07-25T08:44:06;13.50;;;8.80;;
18338;SDS011;9295;44.484;11.240;2022-07-25T08:46:36;18.53;;;8.83;;
18338;SDS011;9295;44.484;11.240;2022-07-25T08:49:07;14.63;;;7.63;;
18338;SDS011;9295;44.484;11.240;2022-07-25T08:51:37;17.70;;;9.60;;
18338;SDS011;9295;44.484;11.240;2022-07-25T08:54:08;13.10;;;8.70;;
18338;SDS011;9295;44.484;11.240;2022-07-25T08:56:39;22.23;;;8.90;;
18338;SDS011;9295;44.484;11.240;2022-07-25T08:59:08;17.70;;;8.00;;
18338;SDS011;9295;44.484;11.240;2022-07-25T09:01:41;14.93;;;7.30;;
18338;SDS011;9295;44.484;11.240;2022-07-25T09:04:10;24.70;;;8.53;;
18338;SDS011;9295;44.484;11.240;2022-07-25T09:06:47;15.03;;;8.10;;
18338;SDS011;9295;44.484;11.240;2022-07-25T09:09:17;14.47;;;7.67;;
18338;SDS011;9295;44.484;11.240;2022-07-25T09:11:47;14.17;;;8.87;;
18338;SDS011;9295;44.484;11.240;2022-07-25T09:14:16;14.60;;;8.20;;
18338;SDS011;9295;44.484;11.240;2022-07-25T09:16:45;11.40;;;7.60;;
18338;SDS011;9295;44.484;11.240;2022-07-25T09:19:15;18.53;;;8.20;;
18338;SDS011;9295;44.484;11.240;2022-07-25T09:21:45;14.50;;;7.80;;
18338;SDS011;9295;44.484;11.240;2022-07-25T09:24:26;17.83;;;8.50;;
18338;SDS011;9295;44.484;11.240;2022-07-25T09:26:56;15.17;;;8.70;;
18338;SDS011;9295;44.484;11.240;2022-07-25T09:29:26;14.23;;;7.90;;
18338;SDS011;9295;44.484;11.240;2022-07-25T09:31:58;23.20;;;7.53;;
18338;SDS011;9295;44.484;11.240;2022-07-25T09:34:29;12.80;;;7.33;;
18338;SDS011;9295;44.484;11.240;2022-07-25T09:37:00;14.77;;;7.30;;
18338;SDS011;9295;44.484;11.240;2022-07-25T09:39:35;13.80;;;7.17;;
18338;SDS011;9295;44.484;11.240;2022-07-25T09:42:23;13.07;;;7.50;;
18338;SDS011;9295;44.484;11.240;2022-07-25T09:44:56;16.17;;;8.23;;
18338;SDS011;9295;44.484;11.240;2022-07-25T09:47:31;16.37;;;7.40;;
18338;SDS011;9295;44.484;11.240;2022-07-25T09:50:02;12.40;;;7.13;;
18338;SDS011;9295;44.484;11.240;2022-07-25T09:52:34;13.90;;;7.27;;
18338;SDS011;9295;44.484;11.240;2022-07-25T09:55:07;15.20;;;7.30;;
18338;SDS011;9295;44.484;11.240;2022-07-25T09:57:36;13.00;;;6.77;;
18338;SDS011;9295;44.484;11.240;2022-07-25T10:00:05;17.90;;;7.33;;
18338;SDS011;9295;44.484;11.240;2022-07-25T10:02:45;16.17;;;7.20;;
18338;SDS011;9295;44.484;11.240;2022-07-25T10:05:22;13.77;;;7.10;;
18338;SDS011;9295;44.484;11.240;2022-07-25T10:08:04;14.53;;;6.83;;
18338;SDS011;9295;44.484;11.240;2022-07-25T10:10:37;16.40;;;6.47;;
18338;SDS011;9295;44.484;11.240;2022-07-25T10:13:07;11.83;;;7.27;;
18338;SDS011;9295;44.484;11.240;2022-07-25T10:15:41;7.30;;;6.23;;
18338;SDS011;9295;44.484;11.240;2022-07-25T10:18:14;8.53;;;6.03;;
18338;SDS011;9295;44.484;11.240;2022-07-25T10:20:45;11.67;;;6.07;;
18338;SDS011;9295;44.484;11.240;2022-07-25T10:23:18;7.50;;;5.63;;
18338;SDS011;9295;44.484;11.240;2022-07-25T10:26:00;10.90;;;6.17;;
18338;SDS011;9295;44.484;11.240;2022-07-25T10:28:37;9.43;;;5.97;;
18338;SDS011;9295;44.484;11.240;2022-07-25T10:31:17;10.70;;;5.93;;
18338;SDS011;9295;44.484;11.240;2022-07-25T10:33:55;9.80;;;6.00;;
18338;SDS011;9295;44.484;11.240;2022-07-25T10:36:26;12.13;;;5.60;;
18338;SDS011;9295;44.484;11.240;2022-07-25T10:38:59;8.13;;;5.80;;
18338;SDS011;9295;44.484;11.240;2022-07-25T10:41:31;8.90;;;5.67;;
18338;SDS011;9295;44.484;11.240;2022-07-25T10:44:10;10.97;;;5.90;;
18338;SDS011;9295;44.484;11.240;2022-07-25T10:46:40;13.33;;;6.03;;
18338;SDS011;9295;44.484;11.240;2022-07-25T10:49:15;11.03;;;5.80;;
18338;SDS011;9295;44.484;11.240;2022-07-25T10:51:54;14.53;;;6.87;;
18338;SDS011;9295;44.484;11.240;2022-07-25T10:54:24;11.50;;;6.57;;
18338;SDS011;9295;44.484;11.240;2022-07-25T10:56:55;13.27;;;6.20;;
18338;SDS011;9295;44.484;11.240;2022-07-25T10:59:27;10.57;;;6.23;;
18338;SDS011;9295;44.484;11.240;2022-07-25T11:01:57;10.50;;;6.03;;
18338;SDS011;9295;44.484;11.240;2022-07-25T11:04:25;18.57;;;6.80;;
18338;SDS011;9295;44.484;11.240;2022-07-25T11:06:55;7.37;;;5.87;;
18338;SDS011;9295;44.484;11.240;2022-07-25T11:09:25;7.80;;;5.37;;
18338;SDS011;9295;44.484;11.240;2022-07-25T11:11:58;11.53;;;6.43;;
18338;SDS011;9295;44.484;11.240;2022-07-25T11:14:28;10.83;;;6.17;;
18338;SDS011;9295;44.484;11.240;2022-07-25T11:17:08;9.90;;;6.50;;
18338;SDS011;9295;44.484;11.240;2022-07-25T11:19:42;19.70;;;6.40;;
18338;SDS011;9295;44.484;11.240;2022-07-25T11:22:19;13.07;;;6.60;;
18338;SDS011;9295;44.484;11.240;2022-07-25T11:24:48;10.67;;;6.50;;
18338;SDS011;9295;44.484;11.240;2022-07-25T11:27:21;8.60;;;6.67;;
18338;SDS011;9295;44.484;11.240;2022-07-25T11:29:51;12.43;;;6.80;;
18338;SDS011;9295;44.484;11.240;2022-07-25T11:32:20;19.63;;;6.97;;
18338;SDS011;9295;44.484;11.240;2022-07-25T11:34:52;12.07;;;6.20;;
18338;SDS011;9295;44.484;11.240;2022-07-25T11:37:21;10.73;;;6.17;;
18338;SDS011;9295;44.484;11.240;2022-07-25T11:39:50;11.20;;;6.43;;
18338;SDS011;9295;44.484;11.240;2022-07-25T11:42:21;13.90;;;6.80;;
18338;SDS011;9295;44.484;11.240;2022-07-25T11:44:52;16.40;;;5.80;;
18338;SDS011;9295;44.484;11.240;2022-07-25T11:47:21;21.47;;;7.17;;
18338;SDS011;9295;44.484;11.240;2022-07-25T11:49:52;17.23;;;6.53;;
18338;SDS011;9295;44.484;11.240;2022-07-25T11:52:23;22.63;;;7.30;;
18338;SDS011;9295;44.484;11.240;2022-07-25T11:54:53;13.70;;;6.20;;
18338;SDS011;9295;44.484;11.240;2022-07-25T11:57:26;8.63;;;6.40;;
18338;SDS011;9295;44.484;11.240;2022-07-25T11:59:56;11.37;;;6.37;;
18338;SDS011;9295;44.484;11.240;2022-07-25T12:02:27;11.90;;;6.20;;
18338;SDS011;9295;44.484;11.240;2022-07-25T12:04:58;15.73;;;6.43;;
18338;SDS011;9295;44.484;11.240;2022-07-25T12:07:35;7.40;;;6.30;;
18338;SDS011;9295;44.484;11.240;2022-07-25T12:10:11;10.63;;;6.07;;
18338;SDS011;9295;44.484;11.240;2022-07-25T12:12:45;15.30;;;6.17;;
18338;SDS011;9295;44.484;11.240;2022-07-25T12:15:17;11.60;;;5.63;;
18338;SDS011;9295;44.484;11.240;2022-07-25T12:17:48;10.00;;;5.97;;
18338;SDS011;9295;44.484;11.240;2022-07-25T12:20:21;10.87;;;6.17;;
18338;SDS011;9295;44.484;11.240;2022-07-25T12:22:51;11.37;;;6.33;;
18338;SDS011;9295;44.484;11.240;2022-07-25T12:25:21;8.87;;;6.00;;
18338;SDS011;9295;44.484;11.240;2022-07-25T12:27:58;9.57;;;5.97;;
18338;SDS011;9295;44.484;11.240;2022-07-25T12:30:27;9.50;;;6.53;;
18338;SDS011;9295;44.484;11.240;2022-07-25T12:32:57;11.63;;;6.67;;
18338;SDS011;9295;44.484;11.240;2022-07-25T12:35:26;11.07;;;6.73;;
18338;SDS011;9295;44.484;11.240;2022-07-25T12:37:58;12.27;;;6.60;;
18338;SDS011;9295;44.484;11.240;2022-07-25T12:40:27;9.53;;;6.67;;
18338;SDS011;9295;44.484;11.240;2022-07-25T12:43:00;10.70;;;6.40;;
18338;SDS011;9295;44.484;11.240;2022-07-25T12:45:30;16.53;;;6.43;;
18338;SDS011;9295;44.484;11.240;2022-07-25T12:47:58;15.73;;;7.43;;
18338;SDS011;9295;44.484;11.240;2022-07-25T12:50:27;14.30;;;6.93;;
18338;SDS011;9295;44.484;11.240;2022-07-25T12:52:56;13.83;;;7.10;;
18338;SDS011;9295;44.484;11.240;2022-07-25T12:55:26;10.87;;;6.93;;
18338;SDS011;9295;44.484;11.240;2022-07-25T12:57:55;12.07;;;6.30;;
18338;SDS011;9295;44.484;11.240;2022-07-25T13:00:25;11.70;;;6.53;;
18338;SDS011;9295;44.484;11.240;2022-07-25T13:02:54;11.33;;;6.80;;
18338;SDS011;9295;44.484;11.240;2022-07-25T13:05:23;13.23;;;6.97;;
18338;SDS011;9295;44.484;11.240;2022-07-25T13:07:52;12.60;;;6.63;;
18338;SDS011;9295;44.484;11.240;2022-07-25T13:10:21;13.93;;;6.73;;
18338;SDS011;9295;44.484;11.240;2022-07-25T13:12:49;12.53;;;6.57;;
18338;SDS011;9295;44.484;11.240;2022-07-25T13:15:18;8.17;;;6.47;;
18338;SDS011;9295;44.484;11.240;2022-07-25T13:17:50;16.00;;;6.77;;
18338;SDS011;9295;44.484;11.240;2022-07-25T13:20:18;12.30;;;6.40;;
18338;SDS011;9295;44.484;11.240;2022-07-25T13:22:47;11.07;;;6.50;;
18338;SDS011;9295;44.484;11.240;2022-07-25T13:25:16;18.93;;;6.40;;
18338;SDS011;9295;44.484;11.240;2022-07-25T13:27:45;9.00;;;6.47;;
18338;SDS011;9295;44.484;11.240;2022-07-25T13:30:15;11.93;;;6.50;;
18338;SDS011;9295;44.484;11.240;2022-07-25T13:32:44;11.00;;;5.73;;
18338;SDS011;9295;44.484;11.240;2022-07-25T13:35:15;14.67;;;6.60;;
18338;SDS011;9295;44.484;11.240;2022-07-25T13:37:49;9.17;;;5.73;;
18338;SDS011;9295;44.484;11.240;2022-07-25T13:40:18;11.93;;;6.63;;
18338;SDS011;9295;44.484;11.240;2022-07-25T13:42:47;11.30;;;7.00;;
18338;SDS011;9295;44.484;11.240;2022-07-25T13:45:18;12.90;;;6.13;;
18338;SDS011;9295;44.484;11.240;2022-07-25T13:47:47;16.43;;;6.60;;
18338;SDS011;9295;44.484;11.240;2022-07-25T13:50:37;12.17;;;7.40;;
18338;SDS011;9295;44.484;11.240;2022-07-25T13:53:06;11.70;;;6.57;;
18338;SDS011;9295;44.484;11.240;2022-07-25T13:55:34;8.00;;;5.97;;
18338;SDS011;9295;44.484;11.240;2022-07-25T13:58:04;14.30;;;6.23;;
18338;SDS011;9295;44.484;11.240;2022-07-25T14:00:34;13.20;;;6.80;;
18338;SDS011;9295;44.484;11.240;2022-07-25T14:03:03;10.13;;;6.80;;
18338;SDS011;9295;44.484;11.240;2022-07-25T14:05:31;10.77;;;6.80;;
18338;SDS011;9295;44.484;11.240;2022-07-25T14:08:02;8.80;;;6.27;;
18338;SDS011;9295;44.484;11.240;2022-07-25T14:10:30;14.77;;;7.60;;
18338;SDS011;9295;44.484;11.240;2022-07-25T14:12:59;18.30;;;6.80;;
18338;SDS011;9295;44.484;11.240;2022-07-25T14:15:30;19.43;;;6.90;;
18338;SDS011;9295;44.484;11.240;2022-07-25T14:17:59;18.70;;;6.73;;
18338;SDS011;9295;44.484;11.240;2022-07-25T14:20:27;13.47;;;6.87;;
18338;SDS011;9295;44.484;11.240;2022-07-25T14:22:56;12.93;;;6.70;;
18338;SDS011;9295;44.484;11.240;2022-07-25T14:25:26;14.27;;;6.50;;
18338;SDS011;9295;44.484;11.240;2022-07-25T14:27:55;17.10;;;7.10;;
18338;SDS011;9295;44.484;11.240;2022-07-25T14:30:25;12.00;;;6.23;;
18338;SDS011;9295;44.484;11.240;2022-07-25T14:32:54;13.33;;;6.47;;
18338;SDS011;9295;44.484;11.240;2022-07-25T14:35:23;16.13;;;6.93;;
18338;SDS011;9295;44.484;11.240;2022-07-25T14:37:58;14.40;;;6.40;;
18338;SDS011;9295;44.484;11.240;2022-07-25T14:40:28;13.90;;;6.43;;
18338;SDS011;9295;44.484;11.240;2022-07-25T14:42:57;9.70;;;6.17;;
18338;SDS011;9295;44.484;11.240;2022-07-25T14:45:27;10.53;;;6.43;;
18338;SDS011;9295;44.484;11.240;2022-07-25T14:47:55;11.97;;;6.50;;
18338;SDS011;9295;44.484;11.240;2022-07-25T14:50:24;10.87;;;6.93;;
18338;SDS011;9295;44.484;11.240;2022-07-25T14:52:56;9.80;;;6.10;;
18338;SDS011;9295;44.484;11.240;2022-07-25T14:55:25;17.40;;;7.30;;